Time;durP1;ratioP1;P1;durP2;ratioP2;P2;SDS_P1;SDS_P2;PMS_P1;PMS_P2;Temp;Humidity;BMP_temperature;BMP_pressure;BME280_temperature;BME280_humidity;BME280_pressure;Samples;Min_cycle;Max_cycle;Signal;HPM_P1;HPM_P2
2022/10/06 00:00:23;;;;;;;5.35;1.20;;;13.10;99.90;;;;;;5089587;28;21288;-45
2022/10/06 00:02:48;;;;;;;7.13;1.30;;;13.20;99.90;;;;;;5089979;28;20044;-47
2022/10/06 00:05:14;;;;;;;7.65;1.25;;;13.20;99.90;;;;;;5089891;28;20071;-45
2022/10/06 00:07:40;;;;;;;5.35;1.60;;;13.10;99.90;;;;;;5089762;28;20040;-44
2022/10/06 00:10:06;;;;;;;4.85;1.20;;;13.20;99.90;;;;;;5089725;28;20177;-47
2022/10/06 00:12:39;;;;;;;5.75;1.08;;;13.20;99.90;;;;;;5089900;28;20443;-46
2022/10/06 00:15:06;;;;;;;7.60;1.38;;;13.20;99.90;;;;;;5089672;28;20071;-45
2022/10/06 00:17:32;;;;;;;6.68;1.40;;;13.20;99.90;;;;;;5088332;28;20111;-48
2022/10/06 00:19:58;;;;;;;8.02;1.60;;;13.30;99.90;;;;;;5089996;28;20149;-45
2022/10/06 00:22:23;;;;;;;7.50;1.38;;;13.30;99.90;;;;;;5091687;28;20051;-46
2022/10/06 00:24:49;;;;;;;8.23;1.50;;;13.20;99.90;;;;;;5093162;28;20043;-50
2022/10/06 00:27:14;;;;;;;11.43;1.40;;;13.20;99.90;;;;;;5093057;28;20172;-46
2022/10/06 00:29:41;;;;;;;5.65;1.33;;;13.20;99.90;;;;;;5093208;28;20036;-47
2022/10/06 00:32:08;;;;;;;6.13;1.25;;;13.10;99.90;;;;;;5092920;28;20536;-46
2022/10/06 00:34:38;;;;;;;7.93;1.33;;;13.00;99.90;;;;;;5093211;28;20074;-44
2022/10/06 00:37:03;;;;;;;8.15;1.30;;;13.00;99.90;;;;;;5091735;28;20036;-47
2022/10/06 00:39:29;;;;;;;8.27;1.17;;;13.10;99.90;;;;;;5092849;28;20070;-47
2022/10/06 00:41:55;;;;;;;5.05;1.40;;;13.10;99.90;;;;;;5093088;28;20038;-47
2022/10/06 00:44:20;;;;;;;8.40;1.30;;;13.10;99.90;;;;;;5092808;28;20047;-45
2022/10/06 00:46:52;;;;;;;7.82;1.50;;;13.00;99.90;;;;;;5091298;28;20050;-50
2022/10/06 00:49:21;;;;;;;8.65;1.60;;;12.90;99.90;;;;;;5092680;28;20040;-44
2022/10/06 00:52:06;;;;;;;9.98;1.48;;;12.90;99.90;;;;;;5093107;28;20115;-45
2022/10/06 00:54:33;;;;;;;9.25;1.40;;;12.80;99.90;;;;;;5092979;28;20139;-45
2022/10/06 00:56:59;;;;;;;11.07;1.40;;;12.80;99.90;;;;;;5092904;28;20036;-44
2022/10/06 00:59:25;;;;;;;7.35;1.50;;;12.80;99.90;;;;;;5092600;28;20047;-43
2022/10/06 01:02:34;;;;;;;10.27;2.00;;;12.80;99.90;;;;;;5092339;28;20036;-46
2022/10/06 01:05:02;;;;;;;9.73;1.63;;;13.00;99.90;;;;;;5085152;28;20679;-45
2022/10/06 01:07:29;;;;;;;10.95;2.03;;;13.00;99.90;;;;;;5092377;28;20036;-47
2022/10/06 01:09:57;;;;;;;6.40;1.10;;;13.00;99.90;;;;;;5092364;28;20131;-48
2022/10/06 01:12:24;;;;;;;7.47;1.35;;;12.80;99.90;;;;;;5092477;28;20048;-46
2022/10/06 01:14:51;;;;;;;11.00;1.95;;;12.70;99.90;;;;;;5092289;28;20036;-45
2022/10/06 01:17:50;;;;;;;12.90;1.90;;;12.80;99.90;;;;;;5092598;28;20048;-45
2022/10/06 01:20:18;;;;;;;8.95;1.50;;;12.80;99.90;;;;;;5088240;28;20515;-44
2022/10/06 01:22:50;;;;;;;12.23;1.88;;;12.60;99.90;;;;;;5092562;28;20498;-46
2022/10/06 01:25:17;;;;;;;7.82;1.33;;;12.60;99.90;;;;;;5092092;28;20067;-44
2022/10/06 01:27:45;;;;;;;11.27;1.73;;;12.60;99.90;;;;;;5091810;28;20109;-45
2022/10/06 01:30:17;;;;;;;8.82;1.80;;;12.70;99.90;;;;;;5092210;28;20043;-46
2022/10/06 01:32:44;;;;;;;9.05;1.65;;;12.70;99.90;;;;;;5091753;28;20064;-46
2022/10/06 01:35:10;;;;;;;8.35;1.70;;;12.70;99.90;;;;;;5091978;28;20051;-47
2022/10/06 01:37:36;;;;;;;7.57;1.45;;;12.60;99.90;;;;;;5092126;28;20117;-47
2022/10/06 01:40:02;;;;;;;10.77;1.80;;;12.70;99.90;;;;;;5092190;28;20098;-45
2022/10/06 01:42:30;;;;;;;10.73;1.42;;;12.60;99.90;;;;;;5092184;28;20036;-44
2022/10/06 01:44:56;;;;;;;10.70;1.80;;;12.50;99.90;;;;;;5092065;28;20043;-45
2022/10/06 01:47:22;;;;;;;12.52;2.47;;;12.50;99.90;;;;;;5091821;28;20047;-46
2022/10/06 01:49:48;;;;;;;8.90;1.27;;;12.40;99.90;;;;;;5091495;28;20588;-46
2022/10/06 01:52:13;;;;;;;12.73;2.00;;;12.30;99.90;;;;;;5091811;28;20036;-47
2022/10/06 01:54:39;;;;;;;9.40;1.52;;;12.40;99.90;;;;;;5091763;28;20036;-45
2022/10/06 01:57:07;;;;;;;13.65;2.20;;;12.20;99.90;;;;;;5091858;28;20551;-45
2022/10/06 01:59:33;;;;;;;7.75;1.83;;;12.30;99.90;;;;;;5091276;28;20047;-43
2022/10/06 02:01:59;;;;;;;8.10;1.55;;;12.10;99.90;;;;;;5091195;28;20052;-44
2022/10/06 02:04:25;;;;;;;12.02;2.05;;;12.10;99.90;;;;;;5091466;28;20425;-45
2022/10/06 02:06:54;;;;;;;9.65;1.77;;;12.10;99.90;;;;;;5091492;28;20051;-44
2022/10/06 02:09:20;;;;;;;11.60;1.50;;;12.10;99.90;;;;;;5091040;28;20051;-44
2022/10/06 02:11:46;;;;;;;11.55;1.90;;;12.10;99.90;;;;;;5091260;28;20032;-45
2022/10/06 02:14:12;;;;;;;10.48;1.88;;;12.10;99.90;;;;;;5091102;28;20085;-45
2022/10/06 02:16:38;;;;;;;12.25;1.88;;;12.00;99.90;;;;;;5091203;28;20062;-46
2022/10/06 02:19:03;;;;;;;10.38;1.63;;;12.00;99.90;;;;;;5091386;28;20368;-45
2022/10/06 02:21:29;;;;;;;16.65;2.00;;;12.00;99.90;;;;;;5090091;28;20153;-45
2022/10/06 02:23:55;;;;;;;13.65;1.70;;;12.00;99.90;;;;;;5089621;28;20066;-43
2022/10/06 02:26:21;;;;;;;7.28;1.45;;;11.80;99.90;;;;;;5091244;28;20487;-45
2022/10/06 02:28:48;;;;;;;14.82;1.67;;;11.80;99.90;;;;;;5090663;28;20044;-47
2022/10/06 02:31:15;;;;;;;11.48;1.45;;;11.90;99.90;;;;;;5090447;28;20040;-44
2022/10/06 02:33:43;;;;;;;7.68;1.13;;;11.80;99.90;;;;;;5090590;28;20072;-45
2022/10/06 02:36:12;;;;;;;9.15;1.70;;;11.90;99.90;;;;;;5090873;28;20287;-44
2022/10/06 02:38:38;;;;;;;12.73;2.42;;;11.90;99.90;;;;;;5089618;28;20123;-47
2022/10/06 02:41:04;;;;;;;12.43;1.58;;;11.90;99.90;;;;;;5090914;28;20499;-46
2022/10/06 02:43:30;;;;;;;13.52;2.22;;;12.00;99.90;;;;;;5089221;28;20101;-45
2022/10/06 02:45:58;;;;;;;8.93;1.58;;;12.00;99.90;;;;;;5090425;28;20110;-43
2022/10/06 02:48:25;;;;;;;5.97;1.40;;;12.00;99.90;;;;;;5090630;28;20119;-46
2022/10/06 02:50:55;;;;;;;10.25;1.60;;;11.90;99.90;;;;;;5090484;28;20028;-45
2022/10/06 02:53:24;;;;;;;10.35;1.67;;;12.00;99.90;;;;;;5089474;28;20090;-45
2022/10/06 02:55:49;;;;;;;7.82;1.55;;;12.10;99.90;;;;;;5090895;28;20044;-45
2022/10/06 02:58:15;;;;;;;12.38;1.98;;;12.00;99.90;;;;;;5090670;28;20093;-46
2022/10/06 03:00:41;;;;;;;12.65;1.67;;;11.90;99.90;;;;;;5090234;28;20032;-45
2022/10/06 03:03:06;;;;;;;11.70;1.67;;;11.90;99.90;;;;;;5090394;28;20043;-44
2022/10/06 03:05:32;;;;;;;7.05;1.38;;;11.90;99.90;;;;;;5090186;28;20123;-45
2022/10/06 03:07:57;;;;;;;8.23;1.45;;;11.90;99.90;;;;;;5090166;28;20071;-44
2022/10/06 03:10:23;;;;;;;10.52;1.42;;;11.90;99.90;;;;;;5090426;28;20078;-45
2022/10/06 03:12:49;;;;;;;6.55;1.40;;;11.80;99.90;;;;;;5090228;28;20038;-45
2022/10/06 03:15:15;;;;;;;8.82;1.40;;;11.80;99.90;;;;;;5090396;28;20043;-44
2022/10/06 03:17:41;;;;;;;9.75;1.77;;;11.70;99.90;;;;;;5088782;28;20032;-45
2022/10/06 03:20:07;;;;;;;10.75;1.58;;;11.80;99.90;;;;;;5090041;28;20068;-45
2022/10/06 03:22:32;;;;;;;12.45;1.50;;;11.70;99.90;;;;;;5090449;28;20118;-45
2022/10/06 03:24:58;;;;;;;9.40;1.70;;;11.70;99.90;;;;;;5087624;28;20135;-45
2022/10/06 03:27:24;;;;;;;13.05;1.67;;;11.70;99.90;;;;;;5089997;28;20059;-44
2022/10/06 03:29:50;;;;;;;10.88;1.80;;;11.70;99.90;;;;;;5090288;28;20105;-45
2022/10/06 03:32:15;;;;;;;11.50;1.85;;;11.70;99.90;;;;;;5089795;28;20036;-47
2022/10/06 03:34:41;;;;;;;5.95;1.40;;;11.60;99.90;;;;;;5090349;28;20528;-44
2022/10/06 03:37:07;;;;;;;8.20;1.30;;;11.40;99.90;;;;;;5090073;28;20525;-45
2022/10/06 03:39:33;;;;;;;8.48;1.65;;;11.50;99.90;;;;;;5090167;28;20040;-44
2022/10/06 03:41:58;;;;;;;11.15;1.80;;;11.40;99.90;;;;;;5090193;28;20032;-45
2022/10/06 03:44:24;;;;;;;8.23;1.38;;;11.30;99.90;;;;;;5089930;28;20032;-44
2022/10/06 03:46:50;;;;;;;10.50;1.50;;;11.20;99.90;;;;;;5090249;28;20040;-45
2022/10/06 03:49:15;;;;;;;13.88;1.73;;;11.10;99.90;;;;;;5089711;28;20036;-47
2022/10/06 03:51:42;;;;;;;9.55;1.65;;;11.10;99.90;;;;;;5089631;28;20047;-43
2022/10/06 03:54:09;;;;;;;9.00;1.38;;;11.20;99.90;;;;;;5090044;28;20032;-46
2022/10/06 03:56:37;;;;;;;8.80;1.10;;;11.10;99.90;;;;;;5090951;28;20364;-47
2022/10/06 03:59:08;;;;;;;7.00;1.23;;;11.00;99.90;;;;;;5094205;28;20068;-43
2022/10/06 04:01:42;;;;;;;9.80;1.80;;;11.00;99.90;;;;;;5093782;28;20096;-45
2022/10/06 04:04:08;;;;;;;10.25;1.58;;;11.00;99.90;;;;;;5093352;28;20169;-43
2022/10/06 04:06:36;;;;;;;10.95;1.70;;;11.00;99.90;;;;;;5093450;28;20089;-45
2022/10/06 04:09:04;;;;;;;6.90;1.45;;;11.00;99.90;;;;;;5093798;28;20032;-47
2022/10/06 04:11:33;;;;;;;10.95;1.42;;;10.80;99.90;;;;;;5093472;28;20028;-45
2022/10/06 04:14:04;;;;;;;7.20;1.40;;;10.80;99.90;;;;;;5093590;28;20044;-46
2022/10/06 04:16:35;;;;;;;7.65;1.20;;;10.80;99.90;;;;;;5093651;28;20527;-47
2022/10/06 04:19:03;;;;;;;8.35;1.30;;;10.70;99.90;;;;;;5093607;28;20157;-47
2022/10/06 04:21:31;;;;;;;8.13;1.38;;;10.70;99.90;;;;;;5093305;28;20487;-45
2022/10/06 04:23:58;;;;;;;9.95;1.50;;;10.60;99.90;;;;;;5093615;28;20122;-44
2022/10/06 04:26:26;;;;;;;12.00;1.75;;;10.70;99.90;;;;;;5093414;28;20036;-44
2022/10/06 04:28:51;;;;;;;7.20;1.65;;;10.50;99.90;;;;;;5092955;28;20635;-46
2022/10/06 04:31:21;;;;;;;13.75;1.55;;;10.50;99.90;;;;;;5093042;28;20048;-45
2022/10/06 04:33:49;;;;;;;6.35;1.10;;;10.50;99.90;;;;;;5093154;28;20066;-44
2022/10/06 04:36:21;;;;;;;7.50;1.27;;;10.40;99.90;;;;;;5093030;28;20035;-47
2022/10/06 04:38:48;;;;;;;11.75;1.50;;;10.40;99.90;;;;;;5093209;28;20047;-46
2022/10/06 04:41:16;;;;;;;6.50;1.27;;;10.40;99.90;;;;;;5093149;28;20044;-45
2022/10/06 04:43:45;;;;;;;11.07;1.35;;;10.20;99.90;;;;;;5091648;28;20074;-47
2022/10/06 04:46:11;;;;;;;10.18;1.60;;;10.30;99.90;;;;;;5092995;28;20127;-46
2022/10/06 04:48:37;;;;;;;12.90;1.83;;;10.20;99.90;;;;;;5093007;28;20351;-46
2022/10/06 04:51:06;;;;;;;10.18;2.00;;;10.10;99.90;;;;;;5092852;28;20035;-46
2022/10/06 04:53:32;;;;;;;7.13;1.33;;;10.20;99.90;;;;;;5093083;28;20060;-45
2022/10/06 04:56:05;;;;;;;7.13;1.30;;;10.00;99.90;;;;;;5092307;28;20058;-43
2022/10/06 04:58:36;;;;;;;9.30;1.40;;;10.10;99.90;;;;;;5091335;28;20073;-46
2022/10/06 05:01:04;;;;;;;15.00;1.45;;;10.10;99.90;;;;;;5092459;28;20036;-45
2022/10/06 05:03:30;;;;;;;11.25;1.67;;;10.10;99.90;;;;;;5092933;28;20463;-47
2022/10/06 05:06:04;;;;;;;8.70;1.58;;;10.00;99.90;;;;;;5092339;28;20032;-43
2022/10/06 05:08:31;;;;;;;9.35;1.50;;;9.90;99.90;;;;;;5090677;28;20117;-47
2022/10/06 05:11:08;;;;;;;9.40;1.70;;;9.90;99.90;;;;;;5092406;28;20032;-46
2022/10/06 05:13:36;;;;;;;9.27;1.85;;;9.90;99.90;;;;;;5092470;28;20118;-44
2022/10/06 05:16:04;;;;;;;8.82;1.75;;;9.90;99.90;;;;;;5092493;28;20036;-44
2022/10/06 05:18:30;;;;;;;15.95;2.10;;;9.80;99.90;;;;;;5091374;28;20038;-45
2022/10/06 05:21:04;;;;;;;7.82;1.83;;;9.80;99.90;;;;;;5091255;28;20032;-45
2022/10/06 05:23:31;;;;;;;;;;;9.80;99.90;;;;;;5092811;28;20085;-45
2022/10/06 05:25:58;;;;;;;8.90;1.70;;;9.80;99.90;;;;;;5092367;28;19961;-44
2022/10/06 05:28:25;;;;;;;10.30;2.15;;;9.70;99.90;;;;;;5091832;28;20052;-48
2022/10/06 05:30:56;;;;;;;13.48;1.58;;;9.80;99.90;;;;;;5091960;28;20086;-45
2022/10/06 05:33:22;;;;;;;11.23;1.95;;;9.80;99.90;;;;;;5091848;28;20047;-44
2022/10/06 05:35:55;;;;;;;13.05;1.83;;;9.80;99.90;;;;;;5091989;28;20040;-46
2022/10/06 05:38:21;;;;;;;9.57;1.70;;;9.70;99.90;;;;;;5092126;28;20036;-43
2022/10/06 05:40:48;;;;;;;10.55;1.73;;;9.70;99.90;;;;;;5092114;28;20036;-47
2022/10/06 05:43:14;;;;;;;15.27;2.30;;;9.60;99.90;;;;;;5092062;28;20086;-45
2022/10/06 05:45:40;;;;;;;19.48;2.00;;;9.70;99.90;;;;;;5091740;28;20105;-42
2022/10/06 05:48:06;;;;;;;12.45;3.00;;;9.60;99.90;;;;;;5091982;28;20039;-43
2022/10/06 05:50:31;;;;;;;7.82;1.58;;;9.60;99.90;;;;;;5091502;28;20043;-44
2022/10/06 05:52:57;;;;;;;8.95;1.70;;;9.60;99.90;;;;;;5091696;28;20035;-43
2022/10/06 05:55:22;;;;;;;10.93;1.67;;;9.60;99.90;;;;;;5091645;28;20040;-43
2022/10/06 05:57:48;;;;;;;11.65;1.77;;;9.60;99.90;;;;;;5091714;28;20467;-43
2022/10/06 06:00:14;;;;;;;8.40;1.70;;;9.50;99.90;;;;;;5091584;28;20047;-47
2022/10/06 06:02:40;;;;;;;10.23;2.05;;;9.50;99.90;;;;;;5090831;28;20475;-44
2022/10/06 06:05:05;;;;;;;13.82;1.80;;;9.60;99.90;;;;;;5091296;28;20043;-44
2022/10/06 06:07:31;;;;;;;12.18;2.05;;;9.50;99.90;;;;;;5091156;28;20085;-46
2022/10/06 06:09:57;;;;;;;11.15;1.58;;;9.60;99.90;;;;;;5091142;28;20044;-45
2022/10/06 06:12:22;;;;;;;10.68;2.17;;;9.60;99.90;;;;;;5091314;28;20036;-46
2022/10/06 06:17:33;;;;;;;10.10;1.50;;;9.70;99.90;;;;;;5091300;28;20041;-45
2022/10/06 06:19:58;;;;;;;13.38;1.90;;;9.40;99.90;;;;;;5090427;28;20479;-45
2022/10/06 06:22:24;;;;;;;10.15;1.73;;;9.60;99.90;;;;;;5089516;28;20044;-43
2022/10/06 06:24:50;;;;;;;16.13;2.22;;;9.50;99.90;;;;;;5090922;28;20046;-45
2022/10/06 06:27:16;;;;;;;16.88;1.90;;;9.60;99.90;;;;;;5090964;28;20111;-45
2022/10/06 06:29:41;;;;;;;11.75;1.83;;;9.60;99.90;;;;;;5090979;28;20131;-45
2022/10/06 06:32:08;;;;;;;13.70;2.25;;;9.70;99.90;;;;;;5090764;28;20466;-43
2022/10/06 06:34:34;;;;;;;9.75;1.80;;;9.60;99.90;;;;;;5090305;28;20043;-44
2022/10/06 06:37:00;;;;;;;10.07;1.75;;;9.80;99.90;;;;;;5091029;28;20062;-44
2022/10/06 06:39:26;;;;;;;9.52;1.80;;;9.80;99.90;;;;;;5090718;28;20047;-45
2022/10/06 06:41:52;;;;;;;13.95;2.17;;;9.80;99.90;;;;;;5090937;28;20383;-43
2022/10/06 06:44:19;;;;;;;12.98;2.17;;;9.70;99.90;;;;;;5089602;28;20118;-44
2022/10/06 06:46:47;;;;;;;14.32;1.95;;;9.80;99.90;;;;;;5089041;28;20130;-44
2022/10/06 06:49:14;;;;;;;10.73;2.10;;;9.80;99.90;;;;;;5090872;28;20514;-46
2022/10/06 06:51:43;;;;;;;12.90;1.80;;;10.00;99.90;;;;;;5090635;28;20478;-44
2022/10/06 06:54:10;;;;;;;12.40;2.05;;;9.90;99.90;;;;;;5089170;28;20058;-43
2022/10/06 06:56:37;;;;;;;12.25;1.73;;;10.20;99.90;;;;;;5090768;28;20115;-43
2022/10/06 06:59:07;;;;;;;11.98;1.85;;;10.20;99.90;;;;;;5090313;28;20051;-44
2022/10/06 07:01:33;;;;;;;11.15;1.73;;;10.20;99.90;;;;;;5090344;28;20028;-44
2022/10/06 07:03:59;;;;;;;14.15;2.33;;;10.10;99.90;;;;;;5090458;28;20058;-47
2022/10/06 07:06:27;;;;;;;14.07;2.53;;;10.10;99.90;;;;;;5090580;28;20786;-44
2022/10/06 07:08:52;;;;;;;9.07;2.03;;;10.40;99.90;;;;;;5090247;28;20153;-43
2022/10/06 07:11:19;;;;;;;14.43;1.98;;;10.40;99.90;;;;;;5090446;28;20123;-46
2022/10/06 07:13:46;;;;;;;12.18;2.13;;;10.40;99.90;;;;;;5090488;28;20028;-45
2022/10/06 07:27:17;;;;;;;10.38;1.70;;;10.70;99.90;;;;;;5090338;28;20050;-46
2022/10/06 07:29:43;;;;;;;16.58;2.42;;;10.80;99.90;;;;;;5090023;28;20032;-43
2022/10/06 07:32:09;;;;;;;11.55;2.22;;;10.80;99.90;;;;;;5096169;28;20032;-45
2022/10/06 07:34:36;;;;;;;13.02;1.75;;;10.90;99.90;;;;;;5095372;28;20136;-46
2022/10/06 07:37:02;;;;;;;11.52;2.03;;;11.00;99.90;;;;;;5097047;28;20040;-45
2022/10/06 07:39:27;;;;;;;11.15;1.80;;;11.10;99.90;;;;;;5097056;28;20372;-45
2022/10/06 07:41:53;;;;;;;10.65;2.20;;;11.10;99.90;;;;;;5096635;28;20123;-44
2022/10/06 07:44:19;;;;;;;12.98;1.88;;;11.20;99.90;;;;;;5095426;28;20070;-45
2022/10/06 07:46:44;;;;;;;11.75;2.22;;;11.50;99.90;;;;;;5096490;28;20059;-43
2022/10/06 07:49:10;;;;;;;7.97;1.73;;;11.30;99.90;;;;;;5096676;28;20072;-45
2022/10/06 07:51:36;;;;;;;11.27;1.92;;;11.50;99.90;;;;;;5096972;28;20132;-45
2022/10/06 07:54:02;;;;;;;12.38;1.90;;;11.70;99.90;;;;;;5096714;28;20078;-44
2022/10/06 07:56:27;;;;;;;7.40;1.77;;;11.60;99.90;;;;;;5096613;28;20036;-44
2022/10/06 07:58:54;;;;;;;22.40;2.28;;;11.80;99.90;;;;;;5095485;28;20119;-45
2022/10/06 08:01:20;;;;;;;12.05;1.88;;;11.80;99.90;;;;;;5096257;28;20069;-46
2022/10/06 08:03:47;;;;;;;11.05;2.10;;;11.80;99.90;;;;;;5097001;28;20044;-45
2022/10/06 08:06:16;;;;;;;9.00;1.73;;;12.00;99.90;;;;;;5096582;28;20067;-43
2022/10/06 08:08:43;;;;;;;12.70;2.38;;;12.10;99.90;;;;;;5096398;28;20043;-45
2022/10/06 08:11:10;;;;;;;14.85;2.40;;;12.20;99.90;;;;;;5096650;28;20110;-43
2022/10/06 08:13:39;;;;;;;15.98;1.83;;;12.30;99.90;;;;;;5096710;28;20468;-44
2022/10/06 08:16:06;;;;;;;13.43;2.17;;;12.20;99.90;;;;;;5096624;28;21090;-45
2022/10/06 08:18:31;;;;;;;14.18;1.90;;;12.30;99.90;;;;;;5096573;28;20101;-49
2022/10/06 08:20:57;;;;;;;11.60;2.03;;;12.50;99.90;;;;;;5096165;28;20044;-44
2022/10/06 08:23:24;;;;;;;15.50;1.95;;;12.50;99.90;;;;;;5096583;28;20119;-45
2022/10/06 08:25:52;;;;;;;12.80;2.40;;;12.50;99.90;;;;;;5096521;28;20082;-47
2022/10/06 08:28:19;;;;;;;15.90;2.63;;;12.60;99.90;;;;;;5096177;28;20083;-44
2022/10/06 08:30:45;;;;;;;11.63;2.03;;;12.90;99.90;;;;;;5096174;28;20075;-46
2022/10/06 08:33:11;;;;;;;9.18;2.28;;;12.90;99.90;;;;;;5096090;28;20031;-45
2022/10/06 08:35:38;;;;;;;15.57;1.95;;;12.90;99.90;;;;;;5096410;28;20024;-43
2022/10/06 08:38:04;;;;;;;8.82;1.73;;;13.10;99.90;;;;;;5096128;28;20076;-44
2022/10/06 08:40:30;;;;;;;10.10;2.30;;;13.20;99.90;;;;;;5096320;28;20044;-46
2022/10/06 08:42:59;;;;;;;11.65;2.35;;;13.20;99.90;;;;;;5093200;28;20035;-44
2022/10/06 08:45:33;;;;;;;8.95;2.17;;;13.30;99.90;;;;;;5092937;28;20192;-45
2022/10/06 08:48:17;;;;;;;9.65;1.63;;;13.50;99.90;;;;;;5092916;28;20048;-46
2022/10/06 08:51:22;;;;;;;9.17;1.77;;;13.50;99.90;;;;;;5092910;28;20123;-45
2022/10/06 08:53:53;;;;;;;;;;;13.70;99.90;;;;;;5093519;28;20270;-45
2022/10/06 08:56:25;;;;;;;10.45;2.20;;;13.70;99.90;;;;;;5092961;28;19920;-45
2022/10/06 08:59:02;;;;;;;15.60;2.53;;;13.90;99.90;;;;;;5092542;28;20162;-44
2022/10/06 09:01:43;;;;;;;10.77;2.13;;;13.90;99.90;;;;;;5092442;28;20422;-44
2022/10/06 09:04:15;;;;;;;13.27;2.20;;;14.00;99.90;;;;;;5092480;28;20107;-45
2022/10/06 09:06:53;;;;;;;10.57;2.25;;;14.10;99.90;;;;;;5091524;28;20402;-47
2022/10/06 09:09:42;;;;;;;12.88;2.45;;;14.20;99.90;;;;;;5092485;28;20040;-45
2022/10/06 09:12:23;;;;;;;12.80;2.50;;;14.30;99.90;;;;;;5092727;28;20075;-48
2022/10/06 09:15:08;;;;;;;11.13;1.75;;;14.40;99.90;;;;;;5092693;28;20097;-46
2022/10/06 09:17:38;;;;;;;11.45;2.00;;;14.40;99.90;;;;;;5092704;28;20115;-47
2022/10/06 09:20:14;;;;;;;12.40;2.78;;;14.60;99.90;;;;;;5091710;28;20039;-49
2022/10/06 09:22:40;;;;;;;12.30;2.30;;;14.70;99.90;;;;;;5092654;28;20040;-46
2022/10/06 09:25:19;;;;;;;14.30;2.55;;;14.70;99.90;;;;;;5092317;28;20075;-45
2022/10/06 09:27:51;;;;;;;13.95;2.35;;;14.70;99.90;;;;;;5091905;28;20063;-47
2022/10/06 09:30:18;;;;;;;10.48;1.70;;;14.80;99.90;;;;;;5091990;28;20166;-47
2022/10/06 09:32:46;;;;;;;14.25;2.10;;;14.90;99.90;;;;;;5091837;28;20047;-46
2022/10/06 09:35:31;;;;;;;13.15;2.10;;;14.90;99.90;;;;;;5092060;28;20487;-47
2022/10/06 09:38:03;;;;;;;;;;;14.90;99.90;;;;;;5092644;28;20094;-44
2022/10/06 09:40:48;;;;;;;13.15;2.38;;;15.00;99.90;;;;;;5092143;28;20326;-47
2022/10/06 09:43:28;;;;;;;10.60;1.73;;;15.10;99.90;;;;;;5091828;28;20036;-46
2022/10/06 09:45:56;;;;;;;10.73;1.98;;;15.20;99.90;;;;;;5092247;28;20414;-45
2022/10/06 09:48:24;;;;;;;12.55;2.25;;;15.20;99.90;;;;;;5091901;28;20047;-44
2022/10/06 09:51:12;;;;;;;9.77;2.08;;;15.30;99.90;;;;;;5091858;28;20046;-44
2022/10/06 09:53:39;;;;;;;10.95;2.30;;;15.40;99.90;;;;;;5090920;28;20111;-44
2022/10/06 09:56:19;;;;;;;14.02;1.80;;;15.30;99.90;;;;;;5091422;28;20029;-48
2022/10/06 09:58:59;;;;;;;10.70;1.92;;;15.40;99.90;;;;;;5091798;28;20040;-45
2022/10/06 10:01:30;;;;;;;11.50;2.10;;;15.40;99.90;;;;;;5091095;28;20494;-46
2022/10/06 10:04:06;;;;;;;12.43;2.20;;;15.30;99.90;;;;;;5091604;28;20044;-49
2022/10/06 10:06:36;;;;;;;10.50;2.05;;;15.20;99.90;;;;;;5091552;28;20093;-44
2022/10/06 10:09:20;;;;;;;8.98;2.03;;;15.10;99.90;;;;;;5091155;28;20040;-47
2022/10/06 10:12:26;;;;;;;12.55;1.92;;;15.10;99.90;;;;;;5091391;28;20480;-43
2022/10/06 10:14:56;;;;;;;10.75;2.20;;;15.00;99.90;;;;;;5028701;28;20513;-45
2022/10/06 10:17:33;;;;;;;9.88;2.25;;;14.90;99.90;;;;;;5081051;28;20118;-48
2022/10/06 10:20:01;;;;;;;8.55;1.90;;;15.00;99.90;;;;;;5091485;28;20537;-43
2022/10/06 10:22:40;;;;;;;8.48;1.88;;;15.00;99.90;;;;;;5090988;28;20043;-46
2022/10/06 10:25:26;;;;;;;12.68;1.85;;;15.10;99.90;;;;;;5091158;28;20494;-44
2022/10/06 10:28:21;;;;;;;9.23;1.60;;;15.20;99.90;;;;;;5090962;28;20174;-45
2022/10/06 10:31:04;;;;;;;12.02;1.70;;;15.20;99.90;;;;;;5089158;28;20455;-45
2022/10/06 10:33:52;;;;;;;9.13;2.40;;;15.30;99.90;;;;;;5090477;28;20075;-46
2022/10/06 10:36:24;;;;;;;8.73;1.65;;;15.60;99.90;;;;;;5088575;28;20066;-44
2022/10/06 10:38:52;;;;;;;7.13;1.70;;;15.50;99.90;;;;;;5090808;28;20048;-44
2022/10/06 10:41:24;;;;;;;7.18;1.52;;;15.80;99.90;;;;;;5091055;28;20149;-45
2022/10/06 10:43:53;;;;;;;8.40;1.65;;;15.90;99.90;;;;;;5090754;28;20062;-44
2022/10/06 10:46:18;;;;;;;9.00;1.88;;;15.90;99.90;;;;;;5089882;28;20540;-46
2022/10/06 10:49:01;;;;;;;7.15;1.58;;;15.70;99.90;;;;;;5090765;28;20047;-47
2022/10/06 10:51:29;;;;;;;8.23;1.60;;;15.50;99.90;;;;;;5090469;28;20044;-46
2022/10/06 10:54:03;;;;;;;10.30;1.73;;;15.60;99.90;;;;;;5090671;28;20103;-45
2022/10/06 10:56:32;;;;;;;10.50;1.80;;;15.80;99.90;;;;;;5090069;28;20106;-44
2022/10/06 10:59:24;;;;;;;8.35;1.48;;;16.10;99.90;;;;;;5090819;28;20436;-46
2022/10/06 11:01:58;;;;;;;8.07;1.60;;;16.30;99.90;;;;;;5089935;28;20040;-45
2022/10/06 11:04:24;;;;;;;5.97;1.27;;;16.50;99.90;;;;;;5090318;28;20039;-46
2022/10/06 11:06:59;;;;;;;7.40;1.10;;;16.70;99.90;;;;;;5090212;28;20040;-46
2022/10/06 11:10:00;;;;;;;6.22;1.45;;;16.70;99.90;;;;;;5090399;28;20035;-44
2022/10/06 11:12:38;;;;;;;8.20;1.30;;;16.80;99.90;;;;;;5090268;28;20052;-46
2022/10/06 11:15:37;;;;;;;5.85;1.45;;;16.80;99.90;;;;;;5089386;28;20039;-45
2022/10/06 11:18:35;;;;;;;9.18;1.35;;;16.90;99.90;;;;;;5090580;28;20136;-46
2022/10/06 11:21:22;;;;;;;9.13;1.60;;;17.10;99.90;;;;;;5076180;28;20507;-47
2022/10/06 11:24:12;;;;;;;8.18;1.17;;;17.10;99.90;;;;;;5089964;28;20040;-46
2022/10/06 11:26:47;;;;;;;7.85;1.38;;;17.20;99.90;;;;;;5090428;28;20049;-46
2022/10/06 11:29:37;;;;;;;8.38;1.40;;;17.10;99.90;;;;;;5089446;28;20048;-48
2022/10/06 11:32:19;;;;;;;7.40;1.20;;;16.90;99.90;;;;;;5089822;28;21397;-46
2022/10/06 11:34:48;;;;;;;8.10;1.45;;;17.00;99.90;;;;;;5090481;28;20119;-45
2022/10/06 11:37:36;;;;;;;5.40;1.10;;;17.30;99.90;;;;;;5089246;28;20046;-44
2022/10/06 11:40:36;;;;;;;5.78;1.13;;;17.40;99.90;;;;;;5090017;28;20089;-45
2022/10/06 11:43:11;;;;;;;7.65;1.38;;;17.70;99.90;;;;;;5089279;28;20044;-46
2022/10/06 11:45:47;;;;;;;6.20;1.30;;;17.90;99.90;;;;;;5090096;28;20055;-46
2022/10/06 11:48:31;;;;;;;5.65;1.08;;;18.00;99.90;;;;;;5090252;28;20407;-45
2022/10/06 11:51:27;;;;;;;9.20;1.25;;;18.10;99.90;;;;;;5090135;28;20070;-45
2022/10/06 11:53:58;;;;;;;5.65;1.00;;;18.20;99.90;;;;;;5077495;28;20119;-44
2022/10/06 11:56:34;;;;;;;6.10;1.25;;;18.40;99.90;;;;;;5088807;28;20032;-44
2022/10/06 11:59:23;;;;;;;5.53;1.10;;;18.30;99.90;;;;;;5089986;28;20479;-45
2022/10/06 12:01:50;;;;;;;7.20;1.48;;;18.50;99.90;;;;;;5089829;28;20043;-44
2022/10/06 12:04:19;;;;;;;5.90;1.13;;;18.40;99.90;;;;;;5090021;28;20082;-44
2022/10/06 12:06:44;;;;;;;7.15;1.30;;;18.50;99.90;;;;;;5089960;28;20479;-45
2022/10/06 12:09:29;;;;;;;4.72;0.88;;;18.70;99.90;;;;;;5090059;28;20616;-47
2022/10/06 12:12:14;;;;;;;5.93;1.15;;;18.70;99.90;;;;;;5089686;28;20118;-44
2022/10/06 12:15:01;;;;;;;6.13;1.10;;;18.50;99.90;;;;;;5089885;28;20076;-45
2022/10/06 12:17:39;;;;;;;4.53;0.90;;;18.70;99.90;;;;;;5090262;28;20467;-44
2022/10/06 12:20:27;;;;;;;5.45;0.90;;;18.80;99.90;;;;;;5093808;28;20126;-45
2022/10/06 12:23:07;;;;;;;7.38;1.13;;;19.00;99.90;;;;;;5093055;28;20043;-47
2022/10/06 12:26:13;;;;;;;8.63;1.25;;;19.10;99.90;;;;;;5092894;28;20494;-45
2022/10/06 12:29:14;;;;;;;7.47;1.00;;;19.00;99.90;;;;;;5062111;28;20048;-45
2022/10/06 12:32:21;;;;;;;9.60;1.08;;;19.20;99.90;;;;;;5092741;28;20055;-49
2022/10/06 12:34:59;;;;;;;8.40;1.20;;;18.80;99.90;;;;;;5084589;28;20051;-45
2022/10/06 12:37:28;;;;;;;9.45;1.20;;;18.20;99.90;;;;;;5092966;28;20681;-46
2022/10/06 12:40:35;;;;;;;8.52;1.42;;;18.10;99.90;;;;;;5093306;28;20383;-47
2022/10/06 12:43:21;;;;;;;7.75;1.30;;;18.30;99.90;;;;;;5093058;28;20079;-46
2022/10/06 12:46:03;;;;;;;6.97;1.10;;;18.30;99.90;;;;;;5091597;28;20093;-50
2022/10/06 12:48:38;;;;;;;5.30;1.00;;;18.50;99.90;;;;;;5092835;28;20119;-45
2022/10/06 12:51:29;;;;;;;8.23;1.17;;;18.70;99.90;;;;;;5093204;28;20085;-44
2022/10/06 12:54:19;;;;;;;8.65;1.92;;;18.70;99.90;;;;;;5092835;28;20081;-45
2022/10/06 12:56:57;;;;;;;12.10;1.60;;;18.80;99.90;;;;;;5092923;28;20039;-45
2022/10/06 12:59:23;;;;;;;7.82;1.15;;;19.00;99.90;;;;;;5092978;28;20075;-45
2022/10/06 13:01:54;;;;;;;9.75;1.55;;;18.80;99.90;;;;;;5092365;28;20097;-46
2022/10/06 13:04:41;;;;;;;6.82;1.50;;;19.00;99.90;;;;;;5092845;28;20468;-46
2022/10/06 13:07:21;;;;;;;9.45;1.33;;;19.20;99.90;;;;;;5092462;28;20097;-45
2022/10/06 13:09:50;;;;;;;10.88;1.58;;;19.10;99.90;;;;;;5092547;28;20040;-45
2022/10/06 13:12:23;;;;;;;9.23;1.40;;;19.00;99.90;;;;;;5092345;28;20036;-46
2022/10/06 13:15:28;;;;;;;6.65;1.30;;;19.10;99.90;;;;;;5091852;28;20093;-45
2022/10/06 13:17:54;;;;;;;10.27;1.17;;;19.20;99.90;;;;;;5092419;28;20539;-45